createdAt,value
2017-09-27T00:01:06.232Z,16.30
2017-09-27T00:03:36.944Z,26.67
2017-09-27T00:06:06.231Z,16.80
2017-09-27T00:08:37.109Z,17.23
2017-09-27T00:11:08.166Z,15.00
2017-09-27T00:13:37.420Z,21.52
2017-09-27T00:16:06.667Z,18.05
2017-09-27T00:18:35.967Z,18.65
2017-09-27T00:21:05.458Z,20.00
2017-09-27T00:23:34.668Z,23.12
2017-09-27T00:26:03.971Z,17.05
2017-09-27T00:28:33.312Z,18.45
2017-09-27T00:31:02.551Z,20.80
2017-09-27T00:33:32.600Z,20.23
2017-09-27T00:36:01.856Z,20.88
2017-09-27T00:38:31.100Z,22.83
2017-09-27T00:41:00.388Z,21.37
2017-09-27T00:43:29.667Z,16.20
2017-09-27T00:45:59.715Z,20.05
2017-09-27T00:48:28.968Z,21.23
2017-09-27T00:50:58.225Z,18.85
2017-09-27T00:53:27.518Z,22.10
2017-09-27T00:55:56.771Z,22.77
2017-09-27T00:58:26.040Z,24.98
2017-09-27T01:01:19.575Z,18.85
2017-09-27T01:03:48.829Z,23.73
2017-09-27T01:06:18.077Z,20.90
2017-09-27T01:08:47.366Z,22.90
2017-09-27T01:11:16.624Z,22.75
2017-09-27T01:13:45.867Z,23.25
2017-09-27T01:16:15.146Z,20.48
2017-09-27T01:18:44.393Z,24.00
2017-09-27T01:21:14.422Z,27.35
2017-09-27T01:23:44.467Z,20.15
2017-09-27T01:26:14.483Z,28.33
2017-09-27T01:28:43.775Z,23.20
2017-09-27T01:31:13.056Z,24.90
2017-09-27T01:33:43.106Z,23.15
2017-09-27T01:36:12.368Z,24.50
2017-09-27T01:38:42.586Z,20.70
2017-09-27T01:41:11.832Z,26.58
2017-09-27T01:43:41.087Z,28.58
2017-09-27T01:46:11.300Z,31.40
2017-09-27T01:48:40.555Z,28.67
2017-09-27T01:51:09.804Z,26.27
2017-09-27T01:53:39.161Z,23.92
2017-09-27T01:56:08.407Z,21.65
2017-09-27T01:58:38.626Z,24.75
2017-09-27T02:01:07.884Z,27.80
2017-09-27T02:03:37.134Z,24.63
2017-09-27T02:06:07.211Z,24.70
2017-09-27T02:08:36.462Z,23.77
2017-09-27T02:11:06.891Z,22.50
2017-09-27T02:13:36.893Z,20.85
2017-09-27T02:16:06.963Z,23.75
2017-09-27T02:18:36.218Z,20.95
2017-09-27T02:21:06.644Z,19.73
2017-09-27T02:23:36.664Z,17.70
2017-09-27T02:26:06.868Z,19.75
2017-09-27T02:28:36.114Z,21.08
2017-09-27T02:31:05.607Z,24.35
2017-09-27T02:33:34.858Z,28.42
2017-09-27T02:36:04.100Z,28.67
2017-09-27T02:38:33.355Z,20.17
2017-09-27T02:41:02.643Z,21.50
2017-09-27T02:43:31.875Z,18.80
2017-09-27T02:46:01.134Z,18.37
2017-09-27T02:48:30.408Z,17.77
2017-09-27T02:50:59.658Z,20.48
2017-09-27T02:53:28.910Z,16.37
2017-09-27T02:55:58.200Z,18.02
2017-09-27T02:58:27.455Z,20.95
2017-09-27T03:00:56.711Z,22.35
2017-09-27T03:03:26.007Z,18.45
2017-09-27T03:05:55.260Z,14.55
2017-09-27T03:08:24.515Z,18.50
2017-09-27T03:10:53.809Z,17.98
2017-09-27T03:13:23.060Z,19.35
2017-09-27T03:15:52.311Z,14.95
2017-09-27T03:18:21.604Z,18.83
2017-09-27T03:20:50.851Z,16.85
2017-09-27T03:23:20.099Z,16.12
2017-09-27T03:25:50.154Z,17.27
2017-09-27T03:28:19.409Z,15.88
2017-09-27T03:30:49.628Z,18.20
2017-09-27T03:33:19.643Z,18.40
2017-09-27T03:35:49.678Z,16.45
2017-09-27T03:38:19.727Z,18.92
2017-09-27T03:40:48.979Z,17.05
2017-09-27T03:43:19.040Z,19.02
2017-09-27T03:45:48.348Z,17.17
2017-09-27T03:50:57.400Z,20.42
2017-09-27T03:53:26.655Z,27.42
2017-09-27T03:55:56.693Z,17.77
2017-09-27T03:58:25.970Z,18.77
2017-09-27T04:00:55.985Z,17.62
2017-09-27T04:03:26.039Z,20.10
2017-09-27T04:05:55.296Z,25.05
2017-09-27T04:08:24.543Z,24.30
2017-09-27T04:10:53.972Z,23.85
2017-09-27T04:13:23.218Z,25.12
2017-09-27T04:15:52.494Z,27.83
2017-09-27T04:18:21.793Z,22.10
2017-09-27T04:20:51.040Z,26.33
2017-09-27T04:23:20.291Z,29.17
2017-09-27T04:25:49.591Z,30.35
2017-09-27T04:28:18.859Z,33.58
2017-09-27T04:30:48.123Z,58.45
2017-09-27T04:33:17.399Z,41.20
2017-09-27T04:35:46.639Z,30.20
2017-09-27T04:38:17.043Z,37.40
2017-09-27T04:40:47.053Z,62.50
2017-09-27T04:43:17.101Z,64.45
2017-09-27T04:45:46.351Z,50.45
2017-09-27T04:48:15.598Z,44.55
2017-09-27T04:50:45.650Z,41.33
2017-09-27T04:53:14.911Z,37.83
2017-09-27T04:55:44.163Z,34.03
2017-09-27T04:58:13.439Z,37.35
2017-09-27T05:00:42.695Z,34.75
2017-09-27T05:03:12.990Z,34.53
2017-09-27T05:05:42.242Z,37.70
2017-09-27T05:08:11.514Z,43.05
2017-09-27T05:10:41.547Z,33.45
2017-09-27T05:13:10.816Z,35.85
2017-09-27T05:15:40.061Z,32.75
2017-09-27T05:18:09.333Z,33.95
2017-09-27T05:20:39.343Z,35.30
2017-09-27T05:23:08.623Z,33.13
2017-09-27T05:25:37.907Z,30.95
2017-09-27T05:28:07.956Z,31.85
2017-09-27T05:30:37.228Z,31.80
2017-09-27T05:33:06.479Z,32.53
2017-09-27T05:35:36.720Z,38.53
2017-09-27T05:38:06.008Z,32.47
2017-09-27T05:40:35.263Z,31.30
2017-09-27T05:43:04.683Z,31.90
2017-09-27T05:45:33.949Z,28.95
2017-09-27T05:48:03.191Z,35.55
2017-09-27T05:50:33.399Z,31.58
2017-09-27T05:53:02.650Z,33.90
2017-09-27T05:55:31.904Z,33.15
2017-09-27T05:58:01.339Z,31.00
2017-09-27T06:00:30.596Z,30.30
2017-09-27T06:02:59.840Z,32.00
2017-09-27T06:05:29.200Z,28.42
2017-09-27T06:07:58.501Z,28.90
2017-09-27T06:10:27.748Z,30.40
2017-09-27T06:12:57.024Z,27.08
2017-09-27T06:15:27.055Z,33.35
2017-09-27T06:17:57.181Z,31.92
2017-09-27T06:20:26.431Z,26.10
2017-09-27T06:22:55.683Z,38.58
2017-09-27T06:25:25.184Z,37.40
2017-09-27T06:27:55.195Z,38.13
2017-09-27T06:30:25.251Z,29.80
2017-09-27T06:32:54.544Z,32.33
2017-09-27T06:35:23.794Z,32.67
2017-09-27T06:37:53.039Z,32.13
2017-09-27T06:40:22.499Z,27.37
2017-09-27T06:42:51.744Z,30.45
2017-09-27T06:45:21.004Z,28.67
2017-09-27T06:47:50.283Z,29.58
2017-09-27T06:50:19.531Z,29.20
2017-09-27T06:52:48.834Z,34.67
2017-09-27T06:55:18.129Z,30.27
2017-09-27T06:57:47.374Z,28.00
2017-09-27T07:00:16.628Z,28.40
2017-09-27T07:02:45.929Z,30.17
2017-09-27T07:05:15.179Z,30.17
2017-09-27T07:07:44.431Z,30.85
2017-09-27T07:10:14.078Z,33.75
2017-09-27T07:12:44.142Z,35.65
2017-09-27T07:15:14.363Z,31.17
2017-09-27T07:17:44.408Z,32.72
2017-09-27T07:20:13.687Z,27.83
2017-09-27T07:22:43.729Z,31.12
2017-09-27T07:25:12.987Z,33.90
2017-09-27T07:27:42.232Z,35.17
2017-09-27T07:30:11.607Z,34.60
2017-09-27T07:32:41.627Z,32.17
2017-09-27T07:35:11.069Z,31.80
2017-09-27T07:37:40.332Z,35.33
2017-09-27T07:40:09.592Z,36.35
2017-09-27T07:42:39.005Z,39.63
2017-09-27T07:45:08.258Z,33.60
2017-09-27T07:47:37.539Z,35.47
2017-09-27T07:50:07.747Z,34.50
2017-09-27T07:52:37.812Z,37.72
2017-09-27T07:55:07.149Z,36.90
2017-09-27T07:57:36.409Z,34.08
2017-09-27T08:00:06.601Z,37.13
2017-09-27T08:02:35.843Z,41.90
2017-09-27T08:05:05.096Z,32.42
2017-09-27T08:07:35.197Z,36.80
2017-09-27T08:10:04.494Z,36.83
2017-09-27T08:12:33.770Z,33.10
2017-09-27T08:15:03.063Z,34.05
2017-09-27T08:17:32.313Z,33.95
2017-09-27T08:20:02.441Z,33.80
2017-09-27T08:22:31.699Z,35.40
2017-09-27T08:25:01.850Z,38.15
2017-09-27T08:27:31.897Z,36.25
2017-09-27T08:30:01.149Z,35.47
2017-09-27T08:32:30.393Z,31.40
2017-09-27T08:34:59.673Z,39.25
2017-09-27T08:37:28.972Z,31.10
2017-09-27T08:39:59.008Z,42.30
2017-09-27T08:42:28.299Z,38.13
2017-09-27T08:44:58.312Z,39.50
2017-09-27T08:47:28.563Z,39.05
2017-09-27T08:49:58.576Z,37.38
2017-09-27T08:52:27.875Z,40.53
2017-09-27T08:54:57.896Z,44.97
2017-09-27T08:57:27.323Z,38.47
2017-09-27T08:59:56.615Z,36.78
2017-09-27T09:02:25.863Z,43.05
2017-09-27T09:04:55.891Z,36.25
2017-09-27T09:07:25.918Z,46.40
2017-09-27T09:09:55.986Z,39.85
2017-09-27T09:12:25.203Z,36.63
2017-09-27T09:14:54.603Z,37.38
2017-09-27T09:17:23.892Z,41.58
2017-09-27T09:19:53.152Z,38.42
2017-09-27T09:22:22.456Z,36.35
2017-09-27T09:24:52.655Z,35.63
2017-09-27T09:27:21.968Z,37.70
2017-09-27T09:29:51.416Z,44.72
2017-09-27T09:32:21.488Z,35.70
2017-09-27T09:34:50.735Z,35.45
2017-09-27T09:37:20.007Z,34.13
2017-09-27T09:39:49.280Z,34.25
2017-09-27T09:42:20.108Z,34.67
2017-09-27T09:44:50.154Z,34.75
2017-09-27T09:47:19.415Z,40.30
2017-09-27T09:49:48.675Z,33.95
2017-09-27T09:52:18.111Z,41.55
2017-09-27T09:54:47.412Z,37.05
2017-09-27T09:57:16.666Z,35.20
2017-09-27T09:59:45.932Z,32.10
2017-09-27T10:02:15.183Z,31.73
2017-09-27T10:04:44.497Z,32.92
2017-09-27T10:07:13.812Z,29.42
2017-09-27T10:09:43.036Z,37.25
2017-09-27T10:12:12.307Z,29.75
2017-09-27T10:14:41.559Z,30.42
2017-09-27T10:17:10.807Z,31.02
2017-09-27T10:19:40.220Z,25.65
2017-09-27T10:22:13.897Z,35.25
2017-09-27T10:27:37.801Z,29.10
2017-09-27T10:30:08.968Z,23.50
2017-09-27T10:32:38.175Z,38.53
2017-09-27T10:35:08.203Z,33.30
2017-09-27T10:37:38.004Z,29.10
2017-09-27T10:40:07.108Z,25.40
2017-09-27T10:42:37.128Z,24.85
2017-09-27T10:45:07.515Z,31.67
2017-09-27T10:47:36.812Z,25.45
2017-09-27T10:50:06.060Z,24.55
2017-09-27T10:52:36.209Z,21.73
2017-09-27T10:55:06.191Z,22.65
2017-09-27T10:57:36.213Z,27.13
2017-09-27T11:00:07.043Z,21.83
2017-09-27T11:02:37.106Z,24.02
2017-09-27T11:05:07.132Z,23.45
2017-09-27T11:07:36.404Z,22.42
2017-09-27T11:10:05.679Z,24.67
2017-09-27T11:12:35.703Z,20.98
2017-09-27T11:15:05.744Z,21.95
2017-09-27T11:17:35.007Z,23.10
2017-09-27T11:20:04.324Z,18.37
2017-09-27T11:22:35.462Z,18.90
2017-09-27T11:25:05.484Z,18.23
2017-09-27T11:27:34.925Z,17.12
2017-09-27T11:30:04.180Z,18.33
2017-09-27T11:32:34.248Z,20.42
2017-09-27T11:35:04.399Z,22.33
2017-09-27T11:37:33.651Z,20.52
2017-09-27T11:40:02.904Z,19.65
2017-09-27T11:42:32.171Z,21.87
2017-09-27T11:45:01.435Z,21.00
2017-09-27T11:47:30.696Z,19.55
2017-09-27T11:49:59.985Z,21.80
2017-09-27T11:52:29.214Z,21.85
2017-09-27T11:54:59.261Z,22.60
2017-09-27T11:57:28.547Z,23.42
2017-09-27T11:59:58.614Z,19.95
2017-09-27T12:02:27.880Z,20.05
2017-09-27T12:04:57.147Z,17.92
2017-09-27T12:07:26.393Z,16.83
2017-09-27T12:09:55.823Z,16.35
2017-09-27T12:12:25.072Z,23.10
2017-09-27T12:14:55.127Z,22.48
2017-09-27T12:17:24.379Z,18.58
2017-09-27T12:19:54.408Z,16.85
2017-09-27T12:22:24.445Z,18.52
2017-09-27T12:24:53.717Z,20.98
2017-09-27T12:27:22.960Z,16.62
2017-09-27T12:29:52.376Z,22.25
2017-09-27T12:32:21.779Z,21.17
2017-09-27T12:34:51.058Z,17.10
2017-09-27T12:37:20.982Z,22.25
2017-09-27T12:39:50.320Z,19.10
2017-09-27T12:42:20.339Z,18.67
2017-09-27T12:44:50.607Z,17.58
2017-09-27T12:47:22.014Z,17.80
2017-09-27T12:49:52.152Z,19.60
2017-09-27T12:52:23.779Z,20.27
2017-09-27T12:54:58.642Z,18.42
2017-09-27T12:57:28.048Z,21.33
2017-09-27T12:59:59.478Z,19.90
2017-09-27T13:02:29.906Z,16.23
2017-09-27T13:04:59.307Z,19.73
2017-09-27T13:07:28.564Z,18.73
2017-09-27T13:09:57.816Z,22.85
2017-09-27T13:12:27.244Z,16.20
2017-09-27T13:14:56.504Z,19.25
2017-09-27T13:17:25.744Z,14.55
2017-09-27T13:19:55.099Z,15.60
2017-09-27T13:22:24.669Z,18.12
2017-09-27T13:24:53.943Z,18.05
2017-09-27T13:27:24.818Z,18.25
2017-09-27T13:29:54.804Z,17.67
2017-09-27T13:32:25.353Z,19.83
2017-09-27T13:34:54.619Z,20.02
2017-09-27T13:37:24.775Z,15.52
2017-09-27T13:39:54.037Z,15.02
2017-09-27T13:42:23.282Z,15.38
2017-09-27T13:44:52.554Z,17.58
2017-09-27T13:47:23.444Z,14.93
2017-09-27T13:49:52.715Z,13.50
2017-09-27T13:52:21.995Z,18.85
2017-09-27T13:54:51.253Z,18.65
2017-09-27T13:57:20.531Z,13.45
2017-09-27T13:59:49.747Z,13.32
2017-09-27T14:02:19.807Z,17.08
2017-09-27T14:04:50.774Z,16.87
2017-09-27T14:07:20.816Z,15.50
2017-09-27T14:09:50.065Z,15.25
2017-09-27T14:12:20.091Z,15.52
2017-09-27T14:14:51.784Z,14.07
2017-09-27T14:17:21.023Z,13.75
2017-09-27T14:19:50.283Z,13.85
2017-09-27T14:22:19.552Z,14.70
2017-09-27T14:24:48.816Z,15.55
2017-09-27T14:27:18.055Z,16.37
2017-09-27T14:29:47.352Z,16.73
2017-09-27T14:32:17.923Z,20.23
2017-09-27T14:34:48.236Z,17.73
2017-09-27T14:37:17.533Z,15.60
2017-09-27T14:39:47.287Z,16.45
2017-09-27T14:42:16.599Z,15.65
2017-09-27T14:44:45.803Z,13.20
2017-09-27T14:47:17.572Z,15.63
2017-09-27T14:49:47.588Z,15.35
2017-09-27T14:52:19.184Z,15.93
2017-09-27T14:54:48.483Z,16.73
2017-09-27T14:57:18.577Z,15.15
2017-09-27T14:59:48.679Z,16.65
2017-09-27T15:02:18.693Z,14.10
2017-09-27T15:04:49.544Z,11.85
2017-09-27T15:07:21.508Z,15.32
2017-09-27T15:09:50.927Z,16.50
2017-09-27T15:12:20.184Z,16.40
2017-09-27T15:14:49.445Z,16.05
2017-09-27T15:17:18.714Z,14.02
2017-09-27T15:19:49.036Z,15.05
2017-09-27T15:22:19.049Z,14.27
2017-09-27T15:24:50.300Z,13.85
2017-09-27T15:27:22.116Z,15.07
2017-09-27T15:29:51.422Z,15.18
2017-09-27T15:32:20.679Z,18.08
2017-09-27T15:34:49.927Z,28.45
2017-09-27T15:37:19.218Z,14.05
2017-09-27T15:39:48.486Z,16.50
2017-09-27T15:42:17.772Z,13.02
2017-09-27T15:44:47.229Z,12.52
2017-09-27T15:47:16.518Z,16.10
2017-09-27T15:49:45.763Z,12.07
2017-09-27T15:52:15.027Z,14.23
2017-09-27T15:54:44.283Z,14.57
2017-09-27T15:57:13.705Z,15.20
2017-09-27T15:59:43.724Z,11.23
2017-09-27T16:02:13.815Z,13.55
2017-09-27T16:04:43.100Z,14.50
2017-09-27T16:07:12.345Z,15.07
2017-09-27T16:09:42.419Z,16.17
2017-09-27T16:12:11.656Z,11.77
2017-09-27T16:14:41.847Z,12.80
2017-09-27T16:17:11.115Z,14.50
2017-09-27T16:19:40.367Z,12.80
2017-09-27T16:22:09.631Z,14.23
2017-09-27T16:24:38.888Z,11.75
2017-09-27T16:27:08.172Z,10.35
2017-09-27T16:29:37.448Z,12.63
2017-09-27T16:32:06.700Z,12.52
2017-09-27T16:34:35.951Z,12.27
2017-09-27T16:37:05.267Z,11.55
2017-09-27T16:39:34.579Z,11.35
2017-09-27T16:42:04.604Z,15.88
2017-09-27T16:44:34.639Z,10.95
2017-09-27T16:47:03.888Z,11.60
2017-09-27T16:49:33.135Z,14.05
2017-09-27T16:52:02.420Z,15.07
2017-09-27T16:54:32.441Z,18.48
2017-09-27T16:57:02.475Z,18.27
2017-09-27T16:59:31.727Z,10.65
2017-09-27T17:02:00.979Z,11.68
2017-09-27T17:04:30.833Z,9.05
2017-09-27T17:07:00.092Z,10.32
2017-09-27T17:09:29.334Z,11.00
2017-09-27T17:11:59.924Z,15.05
2017-09-27T17:14:29.200Z,11.77
2017-09-27T17:16:58.826Z,10.05
2017-09-27T17:19:34.033Z,12.57
2017-09-27T17:22:17.344Z,12.35
2017-09-27T17:24:46.696Z,11.32
2017-09-27T17:27:16.691Z,9.73
2017-09-27T17:29:45.962Z,11.20
2017-09-27T17:32:15.332Z,14.00
2017-09-27T17:34:46.539Z,13.18
2017-09-27T17:37:15.775Z,12.35
2017-09-27T17:39:46.053Z,14.00
2017-09-27T17:42:15.272Z,10.10
2017-09-27T17:44:44.534Z,11.07
2017-09-27T17:47:13.820Z,11.55
2017-09-27T17:49:43.097Z,12.80
2017-09-27T17:52:13.118Z,11.45
2017-09-27T17:54:43.159Z,11.80
2017-09-27T17:57:12.414Z,14.35
2017-09-27T17:59:41.665Z,13.30
2017-09-27T18:02:10.976Z,15.30
2017-09-27T18:04:48.783Z,11.80
2017-09-27T18:07:21.967Z,14.63
2017-09-27T18:09:56.678Z,13.10
2017-09-27T18:12:29.063Z,13.05
2017-09-27T18:15:10.100Z,20.88
2017-09-27T18:17:39.340Z,11.75
2017-09-27T18:20:08.606Z,14.05
2017-09-27T18:22:38.808Z,18.23
2017-09-27T18:25:08.148Z,19.75
2017-09-27T18:27:37.453Z,22.17
2017-09-27T18:30:06.752Z,19.75
2017-09-27T18:32:37.452Z,14.73
2017-09-27T18:35:12.564Z,16.58
2017-09-27T18:37:43.379Z,18.45
2017-09-27T18:40:12.802Z,17.02
2017-09-27T18:42:42.077Z,28.58
2017-09-27T18:45:12.133Z,17.55
2017-09-27T18:47:41.396Z,17.62
2017-09-27T18:50:10.661Z,14.80
2017-09-27T18:52:40.724Z,18.20
2017-09-27T18:55:09.992Z,15.20
2017-09-27T18:57:39.274Z,14.90
2017-09-27T19:00:09.339Z,17.67
2017-09-27T19:02:38.602Z,14.75
2017-09-27T19:05:07.887Z,19.50
2017-09-27T19:07:37.193Z,15.25
2017-09-27T19:10:06.467Z,17.48
2017-09-27T19:12:35.733Z,19.23
2017-09-27T19:15:05.004Z,25.92
2017-09-27T19:17:35.048Z,16.75
2017-09-27T19:20:04.361Z,19.00
2017-09-27T19:22:33.638Z,22.27
2017-09-27T19:25:02.941Z,24.15
2017-09-27T19:27:32.240Z,28.50
2017-09-27T19:30:01.521Z,22.50
2017-09-27T19:32:31.588Z,24.00
2017-09-27T19:35:00.881Z,26.42
2017-09-27T19:37:30.139Z,24.83
2017-09-27T19:39:59.609Z,23.50
2017-09-27T19:42:28.903Z,26.40
2017-09-27T19:44:58.158Z,27.80
2017-09-27T19:47:28.227Z,17.90
2017-09-27T19:49:57.511Z,22.95
2017-09-27T19:52:26.781Z,24.12
2017-09-27T19:54:56.364Z,24.52
2017-09-27T19:57:25.831Z,21.83
2017-09-27T19:59:55.136Z,28.92
2017-09-27T20:02:24.507Z,20.80
2017-09-27T20:04:54.581Z,16.50
2017-09-27T20:07:23.852Z,26.92
2017-09-27T20:09:53.159Z,23.92
2017-09-27T20:12:22.469Z,21.42
2017-09-27T20:14:51.737Z,18.10
2017-09-27T20:17:21.011Z,18.37
2017-09-27T20:19:50.316Z,17.83
2017-09-27T20:22:19.601Z,22.00
2017-09-27T20:24:49.653Z,23.33
2017-09-27T20:27:18.970Z,20.92
2017-09-27T20:29:48.233Z,23.77
2017-09-27T20:32:18.352Z,25.23
2017-09-27T20:34:48.373Z,20.67
2017-09-27T20:37:17.666Z,25.30
2017-09-27T20:39:48.548Z,21.65
2017-09-27T20:42:17.818Z,22.87
2017-09-27T20:44:47.096Z,22.35
2017-09-27T20:47:16.395Z,27.55
2017-09-27T20:49:46.441Z,20.92
2017-09-27T20:52:15.720Z,22.67
2017-09-27T20:54:45.066Z,23.27
2017-09-27T20:57:14.346Z,20.80
2017-09-27T20:59:43.689Z,24.50
2017-09-27T21:02:13.089Z,20.98
2017-09-27T21:04:43.113Z,21.25
2017-09-27T21:07:12.400Z,19.20
2017-09-27T21:09:41.738Z,26.75
2017-09-27T21:12:10.996Z,22.83
2017-09-27T21:14:40.263Z,21.30
2017-09-27T21:17:10.384Z,25.00
2017-09-27T21:19:39.643Z,20.25
2017-09-27T21:22:09.675Z,27.20
2017-09-27T21:24:38.967Z,21.80
2017-09-27T21:27:09.161Z,18.62
2017-09-27T21:29:38.615Z,21.05
2017-09-27T21:32:08.659Z,17.02
2017-09-27T21:34:38.676Z,20.00
2017-09-27T21:37:07.940Z,16.08
2017-09-27T21:39:37.208Z,15.65
2017-09-27T21:42:15.535Z,17.17
2017-09-27T21:44:44.826Z,20.45
2017-09-27T21:47:15.051Z,14.80
2017-09-27T21:49:44.352Z,15.43
2017-09-27T21:52:14.594Z,15.18
2017-09-27T21:54:43.864Z,15.07
2017-09-27T21:57:13.123Z,14.65
2017-09-27T21:59:42.597Z,15.48
2017-09-27T22:02:11.872Z,19.12
2017-09-27T22:04:41.136Z,20.20
2017-09-27T22:07:10.649Z,19.83
2017-09-27T22:09:39.915Z,18.42
2017-09-27T22:12:09.990Z,23.30
2017-09-27T22:14:41.423Z,22.92
2017-09-27T22:17:11.016Z,18.27
2017-09-27T22:19:40.317Z,19.83
2017-09-27T22:22:09.580Z,18.67
2017-09-27T22:24:38.864Z,20.58
2017-09-27T22:27:08.310Z,21.87
2017-09-27T22:29:38.336Z,16.95
2017-09-27T22:32:09.108Z,17.90
2017-09-27T22:34:38.380Z,22.27
2017-09-27T22:37:08.592Z,25.75
2017-09-27T22:39:37.922Z,24.55
2017-09-27T22:42:07.179Z,20.77
2017-09-27T22:44:37.228Z,15.82
2017-09-27T22:47:06.523Z,18.37
2017-09-27T22:49:35.845Z,22.33
2017-09-27T22:52:05.105Z,20.88
2017-09-27T22:54:35.192Z,19.98
2017-09-27T22:57:04.459Z,16.90
2017-09-27T22:59:33.736Z,18.30
2017-09-27T23:02:03.040Z,16.08
2017-09-27T23:04:32.343Z,17.05
2017-09-27T23:07:02.409Z,14.98
2017-09-27T23:09:31.692Z,15.85
2017-09-27T23:12:00.976Z,17.42
2017-09-27T23:14:30.251Z,17.02
2017-09-27T23:17:00.333Z,17.20
2017-09-27T23:19:29.677Z,15.20
2017-09-27T23:21:59.744Z,16.35
2017-09-27T23:24:29.070Z,14.45
2017-09-27T23:26:58.351Z,16.12
2017-09-27T23:29:27.612Z,15.82
2017-09-27T23:31:57.088Z,25.25
2017-09-27T23:34:27.212Z,15.90
2017-09-27T23:36:57.284Z,18.37
2017-09-27T23:39:26.561Z,17.48
2017-09-27T23:41:55.820Z,18.23
2017-09-27T23:44:25.364Z,15.63
2017-09-27T23:46:54.641Z,19.37
2017-09-27T23:49:24.871Z,17.17
2017-09-27T23:51:54.895Z,15.73
2017-09-27T23:54:24.961Z,21.48
2017-09-27T23:56:54.223Z,19.75
2017-09-27T23:59:23.484Z,17.80
